Time;durP1;ratioP1;P1;durP2;ratioP2;P2;SDS_P1;SDS_P2;PMS_P1;PMS_P2;Temp;Humidity;BMP_temperature;BMP_pressure;BME280_temperature;BME280_humidity;BME280_pressure;Samples;Min_cycle;Max_cycle;Signal;HPM_P1;HPM_P2
2022/01/29 00:02:10;;;;;;;;;11.00;11.00;;;;;;;;5070443;27;45557;-63
2022/01/29 00:04:35;;;;;;;;;17.00;16.00;;;;;;;;5070034;27;45562;-63
2022/01/29 00:07:01;;;;;;;;;19.75;17.75;;;;;;;;5059709;27;46550;-62
2022/01/29 00:09:26;;;;;;;;;17.50;17.00;;;;;;;;5072651;27;45721;-64
2022/01/29 00:11:51;;;;;;;;;16.50;15.25;;;;;;;;5093355;27;45347;-63
2022/01/29 00:14:16;;;;;;;;;17.75;17.25;;;;;;;;5089214;27;45531;-64
2022/01/29 00:16:42;;;;;;;;;15.25;14.00;;;;;;;;5065199;28;45653;-63
2022/01/29 00:19:07;;;;;;;;;21.25;17.75;;;;;;;;5078876;27;45545;-63
2022/01/29 00:21:32;;;;;;;;;16.00;14.75;;;;;;;;5069056;27;45434;-64
2022/01/29 00:23:57;;;;;;;;;15.75;15.75;;;;;;;;5071665;27;45393;-63
2022/01/29 00:26:25;;;;;;;;;16.75;16.75;;;;;;;;5063327;28;45612;-63
2022/01/29 00:28:51;;;;;;;;;20.25;18.50;;;;;;;;5081616;27;45395;-63
2022/01/29 00:31:17;;;;;;;;;20.00;14.75;;;;;;;;5085235;27;45416;-64
2022/01/29 00:33:42;;;;;;;;;16.50;15.00;;;;;;;;5077725;27;45412;-63
2022/01/29 00:36:07;;;;;;;;;20.00;19.25;;;;;;;;5078930;27;46562;-65
2022/01/29 00:38:33;;;;;;;;;17.00;17.00;;;;;;;;5081808;27;45454;-64
2022/01/29 00:40:59;;;;;;;;;16.00;15.00;;;;;;;;5086498;27;45487;-63
2022/01/29 00:43:24;;;;;;;;;15.75;14.75;;;;;;;;5082947;27;46899;-63
2022/01/29 00:45:49;;;;;;;;;18.00;14.25;;;;;;;;5067815;27;48984;-62
2022/01/29 00:48:14;;;;;;;;;14.75;12.75;;;;;;;;5087026;27;45315;-64
2022/01/29 00:50:39;;;;;;;;;17.50;17.25;;;;;;;;5068308;27;45412;-63
2022/01/29 00:53:05;;;;;;;;;16.00;16.00;;;;;;;;5065984;27;45475;-63
2022/01/29 00:55:30;;;;;;;;;19.75;16.50;;;;;;;;5066036;27;48618;-63
2022/01/29 00:57:55;;;;;;;;;16.00;15.00;;;;;;;;5089947;27;45422;-63
2022/01/29 01:00:20;;;;;;;;;16.50;15.25;;;;;;;;5088888;27;45554;-63
2022/01/29 01:02:45;;;;;;;;;17.50;17.50;;;;;;;;5074728;27;45837;-62
2022/01/29 01:05:11;;;;;;;;;19.25;15.50;;;;;;;;5069187;27;48673;-63
2022/01/29 01:07:36;;;;;;;;;15.25;11.50;;;;;;;;5080486;27;45460;-62
2022/01/29 01:10:03;;;;;;;;;15.00;15.00;;;;;;;;5085395;27;45818;-64
2022/01/29 01:12:28;;;;;;;;;16.50;15.00;;;;;;;;5081047;27;45683;-64
2022/01/29 01:14:53;;;;;;;;;15.50;15.50;;;;;;;;5081329;27;46454;-64
2022/01/29 01:17:19;;;;;;;;;17.00;15.00;;;;;;;;5087039;27;45876;-63
2022/01/29 01:19:44;;;;;;;;;15.50;14.75;;;;;;;;5086624;27;45443;-62
2022/01/29 01:22:10;;;;;;;;;14.25;14.25;;;;;;;;5085285;27;45625;-62
2022/01/29 01:24:35;;;;;;;;;15.25;15.25;;;;;;;;5084983;27;45925;-61
2022/01/29 01:27:00;;;;;;;;;15.00;15.00;;;;;;;;5075534;27;45520;-62
2022/01/29 01:29:25;;;;;;;;;17.25;17.25;;;;;;;;5084870;27;45611;-63
2022/01/29 01:31:51;;;;;;;;;21.75;16.50;;;;;;;;5084912;27;45557;-63
2022/01/29 01:34:18;;;;;;;;;14.25;14.25;;;;;;;;5084708;27;45757;-62
2022/01/29 01:36:56;;;;;;;;;19.00;17.00;;;;;;;;5080054;27;45373;-62
2022/01/29 01:39:26;;;;;;;;;17.25;17.25;;;;;;;;5081825;27;45445;-63
2022/01/29 01:42:12;;;;;;;;;17.75;15.00;;;;;;;;5092290;27;45382;-63
2022/01/29 01:44:38;;;;;;;;;14.25;13.25;;;;;;;;5088313;27;47093;-62
2022/01/29 01:47:04;;;;;;;;;16.50;15.00;;;;;;;;5081975;27;45618;-63
2022/01/29 01:49:29;;;;;;;;;14.75;14.75;;;;;;;;5084221;27;45576;-63
2022/01/29 01:51:54;;;;;;;;;15.50;15.50;;;;;;;;5060607;27;45358;-63
2022/01/29 01:54:20;;;;;;;;;14.50;14.50;;;;;;;;5085692;27;46437;-62
2022/01/29 01:56:45;;;;;;;;;20.75;17.25;;;;;;;;5091064;27;45447;-63
2022/01/29 01:59:11;;;;;;;;;14.75;13.00;;;;;;;;5090147;27;45694;-63
2022/01/29 02:01:36;;;;;;;;;17.50;17.25;;;;;;;;5088442;27;45515;-63
2022/01/29 02:04:02;;;;;;;;;14.25;12.50;;;;;;;;5083138;27;45556;-63
2022/01/29 02:06:27;;;;;;;;;15.75;15.75;;;;;;;;5083923;27;45309;-64
2022/01/29 02:08:58;;;;;;;;;15.00;15.00;;;;;;;;5091283;27;45404;-63
2022/01/29 02:11:23;;;;;;;;;17.50;13.50;;;;;;;;5072926;27;45404;-63
2022/01/29 02:13:49;;;;;;;;;19.25;18.00;;;;;;;;5090231;27;46837;-62
2022/01/29 02:16:17;;;;;;;;;18.25;17.00;;;;;;;;5089407;27;45509;-62
2022/01/29 02:18:42;;;;;;;;;22.25;16.50;;;;;;;;5090910;27;45519;-62
2022/01/29 02:21:08;;;;;;;;;17.75;17.75;;;;;;;;5075444;27;45845;-62
2022/01/29 02:23:33;;;;;;;;;18.50;14.50;;;;;;;;5091653;27;46314;-62
2022/01/29 02:25:58;;;;;;;;;13.00;13.00;;;;;;;;5091163;27;45445;-62
2022/01/29 02:28:24;;;;;;;;;10.50;10.50;;;;;;;;5095561;27;45379;-63
2022/01/29 02:30:50;;;;;;;;;18.75;15.75;;;;;;;;5084876;27;45469;-63
2022/01/29 02:33:17;;;;;;;;;18.00;18.00;;;;;;;;5089179;27;45517;-63
2022/01/29 02:35:46;;;;;;;;;18.50;16.75;;;;;;;;5084902;27;45507;-63
2022/01/29 02:38:12;;;;;;;;;16.25;15.00;;;;;;;;5092998;27;45433;-62
2022/01/29 02:40:49;;;;;;;;;11.00;10.50;;;;;;;;5075644;27;45614;-62
2022/01/29 02:43:30;;;;;;;;;17.25;17.25;;;;;;;;5090703;27;46645;-63
2022/01/29 02:45:56;;;;;;;;;18.50;15.75;;;;;;;;5064859;27;45509;-64
2022/01/29 02:48:22;;;;;;;;;18.00;13.75;;;;;;;;5080161;27;45606;-62
2022/01/29 02:50:47;;;;;;;;;16.25;15.50;;;;;;;;5063552;28;45480;-62
2022/01/29 02:53:12;;;;;;;;;16.25;15.25;;;;;;;;5092303;27;46355;-62
2022/01/29 02:55:38;;;;;;;;;15.25;14.50;;;;;;;;5075658;27;46144;-63
2022/01/29 02:58:03;;;;;;;;;16.75;14.25;;;;;;;;5094274;27;45518;-63
2022/01/29 03:00:28;;;;;;;;;13.50;13.50;;;;;;;;5093942;27;45395;-63
2022/01/29 03:02:53;;;;;;;;;14.75;11.75;;;;;;;;5077594;27;46249;-63
2022/01/29 03:05:19;;;;;;;;;16.75;14.00;;;;;;;;5093186;27;45380;-63
2022/01/29 03:07:44;;;;;;;;;14.50;14.50;;;;;;;;5093366;27;45530;-63
2022/01/29 03:10:09;;;;;;;;;10.25;9.00;;;;;;;;5094851;27;45623;-63
2022/01/29 03:12:37;;;;;;;;;15.00;15.00;;;;;;;;5093847;27;45607;-62
2022/01/29 03:15:02;;;;;;;;;7.00;7.00;;;;;;;;5095916;27;45508;-62
2022/01/29 03:17:27;;;;;;;;;13.00;13.00;;;;;;;;5093776;27;45376;-63
2022/01/29 03:19:53;;;;;;;;;15.00;14.25;;;;;;;;5094554;27;45473;-63
2022/01/29 03:22:19;;;;;;;;;16.00;15.25;;;;;;;;5075121;27;47719;-62
2022/01/29 03:24:44;;;;;;;;;12.75;10.75;;;;;;;;5093162;27;45366;-62
2022/01/29 03:27:09;;;;;;;;;13.75;13.75;;;;;;;;5074209;27;45945;-63
2022/01/29 03:29:34;;;;;;;;;15.50;14.00;;;;;;;;5094054;27;45262;-62
2022/01/29 03:32:00;;;;;;;;;12.25;11.50;;;;;;;;5092594;27;45709;-63
2022/01/29 03:34:25;;;;;;;;;12.25;12.25;;;;;;;;5073853;27;45505;-62
2022/01/29 03:36:50;;;;;;;;;14.50;14.50;;;;;;;;5074453;27;45559;-63
2022/01/29 03:39:15;;;;;;;;;14.75;14.25;;;;;;;;5094099;27;45353;-63
2022/01/29 03:41:41;;;;;;;;;12.25;11.50;;;;;;;;5094201;27;45478;-63
2022/01/29 03:44:09;;;;;;;;;13.25;12.75;;;;;;;;5091652;27;45411;-63
2022/01/29 03:46:35;;;;;;;;;16.25;15.25;;;;;;;;5072431;27;45509;-63
2022/01/29 03:49:00;;;;;;;;;15.00;13.75;;;;;;;;5089710;27;45660;-63
2022/01/29 03:51:25;;;;;;;;;17.25;12.75;;;;;;;;5084053;27;46494;-62
2022/01/29 03:53:50;;;;;;;;;14.50;13.50;;;;;;;;5091580;27;45397;-62
2022/01/29 03:56:15;;;;;;;;;15.00;14.00;;;;;;;;5088856;27;45383;-63
2022/01/29 03:58:41;;;;;;;;;16.50;14.75;;;;;;;;5090330;27;46020;-63
2022/01/29 04:01:06;;;;;;;;;13.75;12.00;;;;;;;;5089690;27;45551;-63
2022/01/29 04:03:32;;;;;;;;;15.75;14.00;;;;;;;;5086964;27;45455;-63
2022/01/29 04:05:57;;;;;;;;;14.25;14.25;;;;;;;;5089300;27;45439;-63
2022/01/29 04:08:24;;;;;;;;;16.00;16.00;;;;;;;;5090015;27;45502;-63
2022/01/29 04:10:50;;;;;;;;;16.00;15.00;;;;;;;;5090158;27;46449;-62
2022/01/29 04:13:20;;;;;;;;;14.75;14.75;;;;;;;;5072394;27;45546;-63
2022/01/29 04:15:45;;;;;;;;;15.50;13.25;;;;;;;;5073877;27;45468;-63
2022/01/29 04:18:11;;;;;;;;;14.00;13.75;;;;;;;;5093172;27;45456;-64
2022/01/29 04:20:36;;;;;;;;;20.25;15.50;;;;;;;;5093691;27;45339;-63
2022/01/29 04:23:01;;;;;;;;;10.00;9.25;;;;;;;;5092753;27;45507;-63
2022/01/29 04:25:26;;;;;;;;;18.50;14.25;;;;;;;;5092328;27;45501;-62
2022/01/29 04:27:51;;;;;;;;;18.00;17.00;;;;;;;;5075123;27;45390;-63
2022/01/29 04:35:16;;;;;;;;;15.00;15.00;;;;;;;;5092662;27;45323;-62
2022/01/29 04:37:41;;;;;;;;;16.00;13.75;;;;;;;;5089422;27;45350;-62
2022/01/29 04:40:07;;;;;;;;;13.50;12.75;;;;;;;;5091130;27;45368;-63
2022/01/29 04:42:32;;;;;;;;;14.50;11.00;;;;;;;;5073220;27;45407;-62
2022/01/29 04:44:58;;;;;;;;;14.25;14.25;;;;;;;;5092353;27;45360;-64
2022/01/29 04:47:23;;;;;;;;;11.75;11.75;;;;;;;;5091251;27;45493;-63
2022/01/29 04:49:48;;;;;;;;;10.25;9.25;;;;;;;;5090824;27;46567;-63
2022/01/29 04:52:13;;;;;;;;;19.00;13.25;;;;;;;;5091319;27;45458;-64
2022/01/29 04:54:38;;;;;;;;;11.50;11.50;;;;;;;;5090485;27;45589;-63
2022/01/29 04:57:04;;;;;;;;;12.75;12.75;;;;;;;;5091707;27;45474;-62
2022/01/29 04:59:29;;;;;;;;;12.75;12.75;;;;;;;;5090256;27;45561;-63
2022/01/29 05:01:54;;;;;;;;;11.50;10.25;;;;;;;;5090157;27;45526;-62
2022/01/29 05:04:19;;;;;;;;;11.25;11.00;;;;;;;;5091089;27;45452;-62
2022/01/29 05:06:44;;;;;;;;;11.00;11.00;;;;;;;;5089119;27;45547;-61
2022/01/29 05:09:10;;;;;;;;;16.00;13.00;;;;;;;;5090900;27;46438;-62
2022/01/29 05:11:35;;;;;;;;;15.25;13.00;;;;;;;;5089688;27;45452;-65
2022/01/29 05:14:03;;;;;;;;;15.00;11.25;;;;;;;;5092702;27;45356;-63
2022/01/29 05:16:41;;;;;;;;;11.75;11.75;;;;;;;;5092502;27;45256;-65
2022/01/29 05:27:18;;;;;;;;;15.75;13.25;;;;;;;;5090864;27;45368;-63
2022/01/29 05:29:43;;;;;;;;;14.25;13.75;;;;;;;;5075214;27;48984;-62
2022/01/29 05:32:09;;;;;;;;;13.75;11.00;;;;;;;;5072958;27;45309;-62
2022/01/29 05:34:35;;;;;;;;;14.50;14.00;;;;;;;;5090126;27;45524;-63
2022/01/29 05:37:02;;;;;;;;;14.75;13.25;;;;;;;;5092077;27;45365;-63
2022/01/29 05:39:27;;;;;;;;;17.00;15.00;;;;;;;;5091943;27;45848;-62
2022/01/29 05:41:54;;;;;;;;;21.25;17.00;;;;;;;;5093594;27;45738;-63
2022/01/29 05:44:19;;;;;;;;;12.50;9.75;;;;;;;;5092102;27;46099;-62
2022/01/29 05:46:44;;;;;;;;;14.25;14.00;;;;;;;;5091717;27;45902;-63
2022/01/29 05:49:09;;;;;;;;;15.25;11.25;;;;;;;;5073269;27;46454;-61
2022/01/29 05:51:34;;;;;;;;;15.75;13.50;;;;;;;;5091556;27;45655;-64
2022/01/29 05:54:01;;;;;;;;;9.00;8.75;;;;;;;;5075870;27;45455;-64
2022/01/29 05:56:27;;;;;;;;;17.00;16.00;;;;;;;;5091657;27;45501;-62
2022/01/29 05:58:52;;;;;;;;;15.00;12.75;;;;;;;;5091621;27;46297;-62
2022/01/29 06:01:18;;;;;;;;;12.00;10.75;;;;;;;;5074381;27;49889;-61
2022/01/29 06:03:43;;;;;;;;;14.25;13.00;;;;;;;;5094719;27;45341;-62
2022/01/29 06:06:08;;;;;;;;;9.00;8.00;;;;;;;;5096454;27;45412;-64
2022/01/29 06:08:33;;;;;;;;;22.00;17.25;;;;;;;;5093591;27;46413;-63
2022/01/29 06:10:59;;;;;;;;;15.25;12.50;;;;;;;;5076847;27;45457;-63
2022/01/29 06:13:24;;;;;;;;;14.75;13.00;;;;;;;;5095121;27;45367;-63
2022/01/29 06:15:50;;;;;;;;;11.50;11.50;;;;;;;;5077517;27;45409;-63
2022/01/29 06:18:18;;;;;;;;;10.00;7.75;;;;;;;;5096806;27;45618;-63
2022/01/29 06:20:47;;;;;;;;;12.25;10.25;;;;;;;;5097117;27;45499;-63
2022/01/29 06:23:14;;;;;;;;;19.25;15.50;;;;;;;;5095607;27;45229;-63
2022/01/29 06:25:40;;;;;;;;;13.75;11.50;;;;;;;;5095037;27;46091;-63
2022/01/29 06:28:06;;;;;;;;;10.75;10.00;;;;;;;;5094938;27;47277;-64
2022/01/29 06:30:32;;;;;;;;;12.00;12.00;;;;;;;;5076242;27;45366;-63
2022/01/29 06:33:04;;;;;;;;;10.75;9.50;;;;;;;;5097221;27;45416;-64
2022/01/29 06:35:30;;;;;;;;;9.50;9.50;;;;;;;;5075528;27;45405;-63
2022/01/29 06:37:55;;;;;;;;;14.75;10.25;;;;;;;;5076045;27;47662;-62
2022/01/29 06:40:20;;;;;;;;;10.00;8.75;;;;;;;;5095202;27;45490;-64
2022/01/29 06:42:45;;;;;;;;;16.75;13.75;;;;;;;;5076221;27;45536;-64
2022/01/29 06:45:11;;;;;;;;;11.00;11.00;;;;;;;;5096244;27;45404;-64
2022/01/29 06:47:36;;;;;;;;;14.25;12.00;;;;;;;;5093728;27;45334;-63
2022/01/29 06:50:01;;;;;;;;;10.00;9.75;;;;;;;;5094756;27;45339;-63
2022/01/29 06:52:26;;;;;;;;;11.50;10.75;;;;;;;;5076511;27;45380;-63
2022/01/29 06:54:52;;;;;;;;;10.00;10.00;;;;;;;;5094690;27;45514;-63
2022/01/29 06:57:17;;;;;;;;;12.25;11.50;;;;;;;;5095391;27;46115;-64
2022/01/29 06:59:42;;;;;;;;;8.50;8.50;;;;;;;;5077176;27;45567;-64
2022/01/29 07:02:07;;;;;;;;;14.50;14.25;;;;;;;;5076147;27;45542;-62
2022/01/29 07:04:32;;;;;;;;;7.50;4.75;;;;;;;;5075740;27;45672;-62
2022/01/29 07:06:58;;;;;;;;;11.25;9.50;;;;;;;;5094081;27;45606;-62
2022/01/29 07:09:23;;;;;;;;;3.00;3.00;;;;;;;;5094289;27;45923;-63
2022/01/29 07:11:54;;;;;;;;;10.25;9.00;;;;;;;;5057549;28;45973;-63
2022/01/29 07:14:19;;;;;;;;;9.25;9.25;;;;;;;;5091833;27;45457;-63
2022/01/29 07:16:45;;;;;;;;;12.50;12.50;;;;;;;;5093934;27;46201;-63
2022/01/29 07:19:10;;;;;;;;;8.75;8.00;;;;;;;;5091662;27;46005;-63
2022/01/29 07:21:36;;;;;;;;;7.50;7.00;;;;;;;;5093127;27;45574;-63
2022/01/29 07:24:01;;;;;;;;;8.50;5.75;;;;;;;;5077743;27;45440;-63
2022/01/29 07:26:26;;;;;;;;;8.00;8.00;;;;;;;;5093711;27;45855;-63
2022/01/29 07:28:51;;;;;;;;;11.25;7.75;;;;;;;;5092073;27;45285;-63
2022/01/29 07:31:17;;;;;;;;;8.25;8.25;;;;;;;;5093465;27;45395;-64
2022/01/29 07:33:42;;;;;;;;;8.50;5.75;;;;;;;;5093234;27;45299;-62
2022/01/29 07:36:07;;;;;;;;;8.25;8.25;;;;;;;;5095987;27;45755;-63
2022/01/29 07:38:32;;;;;;;;;9.00;8.50;;;;;;;;5092480;27;45450;-62
2022/01/29 07:40:57;;;;;;;;;5.00;3.75;;;;;;;;5093563;27;45352;-62
2022/01/29 07:43:22;;;;;;;;;5.25;5.00;;;;;;;;5075033;27;45406;-62
2022/01/29 07:45:48;;;;;;;;;6.75;6.75;;;;;;;;5075315;27;46474;-64
2022/01/29 07:48:13;;;;;;;;;9.00;9.00;;;;;;;;5094943;27;45602;-64
2022/01/29 07:50:38;;;;;;;;;6.00;6.00;;;;;;;;5094600;27;45470;-63
2022/01/29 07:53:04;;;;;;;;;8.00;6.25;;;;;;;;5058151;28;45451;-64
2022/01/29 07:55:30;;;;;;;;;8.00;8.00;;;;;;;;5084574;27;47234;-65
2022/01/29 07:57:55;;;;;;;;;4.50;4.50;;;;;;;;5093901;27;45411;-63
2022/01/29 08:00:21;;;;;;;;;6.00;6.00;;;;;;;;5094522;27;45395;-64
2022/01/29 08:02:46;;;;;;;;;5.00;5.00;;;;;;;;5077135;27;45304;-65
2022/01/29 08:05:11;;;;;;;;;7.00;7.00;;;;;;;;5093060;27;46039;-65
2022/01/29 08:07:38;;;;;;;;;8.50;5.25;;;;;;;;5074868;27;45426;-64
2022/01/29 08:10:03;;;;;;;;;6.25;6.25;;;;;;;;5093535;27;48662;-65
2022/01/29 08:12:28;;;;;;;;;6.25;5.00;;;;;;;;5092907;27;45343;-65
2022/01/29 08:14:54;;;;;;;;;7.50;6.25;;;;;;;;5093905;27;45876;-65
2022/01/29 08:17:19;;;;;;;;;8.00;7.00;;;;;;;;5091054;27;45399;-64
2022/01/29 08:19:44;;;;;;;;;6.50;5.00;;;;;;;;5093160;27;45514;-64
2022/01/29 08:22:09;;;;;;;;;5.00;5.00;;;;;;;;5074752;27;45443;-63
2022/01/29 08:24:35;;;;;;;;;5.00;5.00;;;;;;;;5074002;27;48700;-64
2022/01/29 08:27:00;;;;;;;;;7.00;7.00;;;;;;;;5089960;27;46073;-64
2022/01/29 08:29:25;;;;;;;;;3.00;3.00;;;;;;;;5069681;28;45484;-64
2022/01/29 08:31:50;;;;;;;;;6.50;6.25;;;;;;;;5091959;27;45704;-64
2022/01/29 08:34:16;;;;;;;;;4.00;4.00;;;;;;;;5093151;27;45916;-64
2022/01/29 08:36:41;;;;;;;;;6.50;5.75;;;;;;;;5093111;27;45415;-64
2022/01/29 08:39:06;;;;;;;;;5.00;4.00;;;;;;;;5095073;27;45349;-64
2022/01/29 08:41:31;;;;;;;;;6.00;5.00;;;;;;;;5093202;27;45412;-64
2022/01/29 08:43:56;;;;;;;;;3.00;3.00;;;;;;;;5093326;27;45361;-64
2022/01/29 08:46:22;;;;;;;;;4.25;4.00;;;;;;;;5091868;27;45482;-64
2022/01/29 08:48:47;;;;;;;;;6.00;6.00;;;;;;;;5075431;27;45495;-64
2022/01/29 08:51:12;;;;;;;;;3.50;3.50;;;;;;;;5090037;27;45577;-64
2022/01/29 08:53:38;;;;;;;;;3.75;3.75;;;;;;;;5083418;27;45761;-64
2022/01/29 08:56:04;;;;;;;;;7.00;5.00;;;;;;;;5070062;27;46097;-64
2022/01/29 08:58:29;;;;;;;;;5.00;4.25;;;;;;;;5091453;27;45259;-64
2022/01/29 09:00:55;;;;;;;;;4.75;3.75;;;;;;;;5088483;27;45527;-65
2022/01/29 09:03:20;;;;;;;;;5.25;4.00;;;;;;;;5075739;27;46027;-65
2022/01/29 09:05:46;;;;;;;;;5.50;5.50;;;;;;;;5087317;27;45483;-65
2022/01/29 09:08:12;;;;;;;;;4.25;3.50;;;;;;;;5088434;27;45408;-65
2022/01/29 09:10:38;;;;;;;;;4.00;4.00;;;;;;;;5093171;27;45452;-66
2022/01/29 09:13:03;;;;;;;;;3.00;3.00;;;;;;;;5093054;27;46084;-66
2022/01/29 09:15:29;;;;;;;;;4.00;4.00;;;;;;;;5092785;27;45443;-65
2022/01/29 09:17:55;;;;;;;;;4.00;4.00;;;;;;;;5094818;27;45401;-65
2022/01/29 09:20:20;;;;;;;;;5.00;4.00;;;;;;;;5092482;27;45494;-64
2022/01/29 09:22:45;;;;;;;;;3.75;3.75;;;;;;;;5092392;27;45613;-65
2022/01/29 09:25:10;;;;;;;;;6.00;5.00;;;;;;;;5091457;27;45436;-65
2022/01/29 09:27:36;;;;;;;;;4.25;3.00;;;;;;;;5092540;27;45399;-64
2022/01/29 09:30:02;;;;;;;;;6.00;6.00;;;;;;;;5095405;27;45447;-65
2022/01/29 09:32:28;;;;;;;;;5.25;4.00;;;;;;;;5092247;27;46906;-65
2022/01/29 09:34:53;;;;;;;;;8.25;5.25;;;;;;;;5092598;27;45845;-64
2022/01/29 09:37:18;;;;;;;;;4.00;4.00;;;;;;;;5094833;27;45313;-64
2022/01/29 09:39:43;;;;;;;;;4.75;4.75;;;;;;;;5092843;27;47859;-64
2022/01/29 09:42:09;;;;;;;;;4.00;4.00;;;;;;;;5075831;27;46423;-65
2022/01/29 09:44:35;;;;;;;;;3.75;3.75;;;;;;;;5086850;27;45535;-63
2022/01/29 09:47:01;;;;;;;;;4.25;4.25;;;;;;;;5094804;27;45388;-65
2022/01/29 09:49:29;;;;;;;;;4.75;4.75;;;;;;;;5071229;27;45647;-64
2022/01/29 09:51:54;;;;;;;;;3.50;2.25;;;;;;;;5059221;28;46682;-66
2022/01/29 09:54:19;;;;;;;;;3.75;3.75;;;;;;;;5091909;27;45514;-64
2022/01/29 09:56:44;;;;;;;;;5.00;5.00;;;;;;;;5074778;27;45698;-64
2022/01/29 09:59:10;;;;;;;;;7.00;7.00;;;;;;;;5095277;27;45704;-62
2022/01/29 10:01:35;;;;;;;;;3.50;3.50;;;;;;;;5095886;27;45535;-61
2022/01/29 10:04:04;;;;;;;;;4.50;4.50;;;;;;;;5094809;27;45333;-63
2022/01/29 10:06:30;;;;;;;;;3.00;3.00;;;;;;;;5077798;27;45514;-62
2022/01/29 10:08:55;;;;;;;;;5.50;4.00;;;;;;;;5098061;27;45435;-63
2022/01/29 10:11:23;;;;;;;;;3.75;3.75;;;;;;;;5095079;27;47415;-64
2022/01/29 10:13:48;;;;;;;;;3.00;3.00;;;;;;;;5095741;27;45576;-64
2022/01/29 10:16:25;;;;;;;;;4.50;2.25;;;;;;;;5095789;27;45376;-63
2022/01/29 10:19:06;;;;;;;;;3.50;3.50;;;;;;;;5093913;27;45384;-64
2022/01/29 10:21:33;;;;;;;;;6.00;4.50;;;;;;;;5093982;27;45804;-65
2022/01/29 10:24:17;;;;;;;;;3.00;3.00;;;;;;;;5094498;27;45468;-66
2022/01/29 10:26:44;;;;;;;;;1.75;1.25;;;;;;;;5096038;27;45400;-64
2022/01/29 10:29:14;;;;;;;;;4.00;4.00;;;;;;;;5095156;27;45377;-63
2022/01/29 10:31:43;;;;;;;;;3.75;3.75;;;;;;;;5094327;27;45683;-64
2022/01/29 10:34:23;;;;;;;;;3.00;3.00;;;;;;;;5092993;27;45494;-64
2022/01/29 10:37:07;;;;;;;;;4.00;3.25;;;;;;;;5080889;27;45366;-64
2022/01/29 10:39:33;;;;;;;;;5.25;3.00;;;;;;;;5094791;27;45372;-64
2022/01/29 10:42:11;;;;;;;;;2.00;2.00;;;;;;;;5079086;27;46516;-64
2022/01/29 10:44:41;;;;;;;;;3.00;3.00;;;;;;;;5095841;27;45377;-64
2022/01/29 10:47:06;;;;;;;;;1.75;1.75;;;;;;;;5094868;27;45285;-64
2022/01/29 10:49:33;;;;;;;;;3.00;3.00;;;;;;;;5095215;27;45478;-64
2022/01/29 10:52:06;;;;;;;;;3.00;3.00;;;;;;;;5095306;27;45677;-63
2022/01/29 10:54:33;;;;;;;;;2.00;2.00;;;;;;;;5076791;27;46341;-64
2022/01/29 10:56:58;;;;;;;;;3.00;3.00;;;;;;;;5097503;27;45551;-63
2022/01/29 10:59:24;;;;;;;;;3.00;3.00;;;;;;;;5076634;27;45427;-63
2022/01/29 11:01:50;;;;;;;;;4.00;3.50;;;;;;;;5076561;27;48406;-63
2022/01/29 11:04:15;;;;;;;;;2.75;2.75;;;;;;;;5095014;27;45518;-64
2022/01/29 11:06:44;;;;;;;;;2.50;2.50;;;;;;;;5076713;27;45616;-64
2022/01/29 11:09:10;;;;;;;;;3.25;3.25;;;;;;;;5097405;27;45295;-65
2022/01/29 11:11:35;;;;;;;;;2.50;2.50;;;;;;;;5095145;27;45584;-64
2022/01/29 11:14:01;;;;;;;;;28.00;26.25;;;;;;;;5076737;27;45606;-64
2022/01/29 11:16:27;;;;;;;;;4.00;3.50;;;;;;;;5095028;27;45321;-64
2022/01/29 11:18:53;;;;;;;;;2.00;2.00;;;;;;;;5095136;27;45518;-64
2022/01/29 11:21:18;;;;;;;;;7.75;6.50;;;;;;;;5095504;27;46065;-63
2022/01/29 11:23:43;;;;;;;;;11.00;9.25;;;;;;;;5077593;27;45430;-63
2022/01/29 11:26:09;;;;;;;;;6.25;5.25;;;;;;;;5095223;27;45524;-63
2022/01/29 11:28:35;;;;;;;;;3.00;2.50;;;;;;;;5094868;27;45341;-63
2022/01/29 11:31:15;;;;;;;;;6.25;4.50;;;;;;;;5076426;27;46664;-63
2022/01/29 11:33:59;;;;;;;;;1.75;1.75;;;;;;;;5059253;27;45567;-63
2022/01/29 11:36:43;;;;;;;;;1.00;1.00;;;;;;;;5076316;27;45573;-64
2022/01/29 11:39:21;;;;;;;;;0.75;0.75;;;;;;;;5086445;27;45258;-64
2022/01/29 11:42:06;;;;;;;;;2.75;2.75;;;;;;;;5096027;27;45960;-63
2022/01/29 11:44:31;;;;;;;;;3.00;3.00;;;;;;;;5094297;27;45599;-64
2022/01/29 11:47:17;;;;;;;;;0.50;0.50;;;;;;;;5094300;27;46838;-64
2022/01/29 11:49:42;;;;;;;;;1.00;1.00;;;;;;;;5094415;27;45459;-64
2022/01/29 11:52:23;;;;;;;;;2.25;1.75;;;;;;;;5094329;27;45412;-64
2022/01/29 11:54:59;;;;;;;;;3.50;3.00;;;;;;;;5059961;27;46248;-63
2022/01/29 11:57:24;;;;;;;;;3.00;1.75;;;;;;;;5094614;27;45328;-63
2022/01/29 11:59:49;;;;;;;;;1.00;1.00;;;;;;;;5093156;27;46056;-63
2022/01/29 12:02:15;;;;;;;;;0.25;0.25;;;;;;;;5092826;27;45619;-63
2022/01/29 12:04:54;;;;;;;;;1.00;1.00;;;;;;;;5094354;27;45394;-63
2022/01/29 12:09:52;;;;;;;;;0.00;0.00;;;;;;;;5094031;27;45489;-64
2022/01/29 12:12:27;;;;;;;;;1.00;1.00;;;;;;;;5095045;27;47885;-64
2022/01/29 12:14:55;;;;;;;;;2.00;0.00;;;;;;;;5094407;27;45245;-63
2022/01/29 12:17:45;;;;;;;;;0.00;0.00;;;;;;;;5094067;27;45242;-64
2022/01/29 12:20:12;;;;;;;;;1.00;1.00;;;;;;;;5087583;27;45561;-64
2022/01/29 12:22:38;;;;;;;;;1.00;1.00;;;;;;;;5093413;27;46508;-63
2022/01/29 12:25:06;;;;;;;;;1.00;1.00;;;;;;;;5093635;27;45413;-64
2022/01/29 12:27:51;;;;;;;;;1.00;1.00;;;;;;;;5094048;27;45458;-64
2022/01/29 12:30:20;;;;;;;;;1.00;1.00;;;;;;;;5070635;28;45484;-63
2022/01/29 12:33:01;;;;;;;;;2.33;2.33;;;;;;;;5094100;27;46764;-63
2022/01/29 12:35:43;;;;;;;;;1.00;1.00;;;;;;;;5093584;27;45332;-63
2022/01/29 12:38:12;;;;;;;;;1.00;1.00;;;;;;;;5087186;27;45555;-63
2022/01/29 12:40:41;;;;;;;;;0.00;0.00;;;;;;;;5075032;27;45599;-64
2022/01/29 12:43:23;;;;;;;;;2.00;1.00;;;;;;;;5093658;27;45478;-64
2022/01/29 12:45:50;;;;;;;;;2.00;2.00;;;;;;;;5058868;27;46397;-64
2022/01/29 12:48:15;;;;;;;;;0.00;0.00;;;;;;;;5095090;27;45410;-65
2022/01/29 12:50:41;;;;;;;;;2.00;2.00;;;;;;;;5094201;27;45317;-64
2022/01/29 12:53:06;;;;;;;;;1.00;1.00;;;;;;;;5093308;27;46375;-64
2022/01/29 12:55:32;;;;;;;;;2.00;2.00;;;;;;;;5093272;27;45408;-64
2022/01/29 12:57:57;;;;;;;;;1.00;1.00;;;;;;;;5093489;27;45230;-64
2022/01/29 13:00:23;;;;;;;;;1.67;1.67;;;;;;;;5093944;27;45279;-64
2022/01/29 13:02:50;;;;;;;;;1.33;1.33;;;;;;;;5095009;27;45802;-63
2022/01/29 13:05:16;;;;;;;;;1.50;1.50;;;;;;;;5074699;27;45328;-64
2022/01/29 13:07:44;;;;;;;;;5.00;3.00;;;;;;;;5093167;27;45337;-64
2022/01/29 13:10:11;;;;;;;;;1.00;1.00;;;;;;;;5093125;27;45157;-64
2022/01/29 13:12:40;;;;;;;;;1.00;1.00;;;;;;;;5093129;27;46529;-64
2022/01/29 13:15:06;;;;;;;;;1.75;1.75;;;;;;;;5095050;27;45285;-64
2022/01/29 13:17:33;;;;;;;;;3.00;2.00;;;;;;;;5093009;27;45367;-63
2022/01/29 13:20:00;;;;;;;;;2.00;2.00;;;;;;;;5091795;27;45541;-65
2022/01/29 13:22:29;;;;;;;;;1.00;1.00;;;;;;;;5092685;27;45388;-64
2022/01/29 13:25:02;;;;;;;;;3.50;2.00;;;;;;;;5092991;27;45394;-63
2022/01/29 13:27:30;;;;;;;;;2.00;2.00;;;;;;;;5093137;27;45510;-64
2022/01/29 13:30:18;;;;;;;;;1.00;1.00;;;;;;;;5095369;27;45428;-65
2022/01/29 13:32:44;;;;;;;;;4.25;2.00;;;;;;;;5093798;27;45888;-64
2022/01/29 13:35:26;;;;;;;;;3.00;3.00;;;;;;;;5092680;27;45347;-63
2022/01/29 13:38:15;;;;;;;;;1.00;1.00;;;;;;;;5092899;27;45463;-65
2022/01/29 13:40:44;;;;;;;;;2.25;1.75;;;;;;;;5092899;27;45418;-65
2022/01/29 13:43:10;;;;;;;;;3.00;3.00;;;;;;;;5092583;27;45901;-64
2022/01/29 13:45:49;;;;;;;;;2.00;2.00;;;;;;;;5092270;27;45426;-65
2022/01/29 13:48:15;;;;;;;;;4.00;4.00;;;;;;;;5091013;27;45393;-65
2022/01/29 13:50:45;;;;;;;;;2.50;1.00;;;;;;;;5093429;27;45411;-65
2022/01/29 13:53:12;;;;;;;;;3.00;3.00;;;;;;;;5092356;27;47180;-65
2022/01/29 13:55:41;;;;;;;;;1.33;1.33;;;;;;;;5092347;27;45424;-63
2022/01/29 13:58:10;;;;;;;;;3.50;2.00;;;;;;;;5091431;27;45629;-64
2022/01/29 14:00:54;;;;;;;;;2.25;2.25;;;;;;;;5092757;27;45430;-64
2022/01/29 14:03:20;;;;;;;;;3.00;3.00;;;;;;;;5090961;27;46445;-65
2022/01/29 14:05:45;;;;;;;;;2.00;2.00;;;;;;;;5093717;27;45430;-64
2022/01/29 14:08:14;;;;;;;;;2.00;2.00;;;;;;;;5074350;27;45433;-64
2022/01/29 14:10:39;;;;;;;;;3.33;3.33;;;;;;;;5074293;27;45365;-64
2022/01/29 14:13:04;;;;;;;;;2.67;1.33;;;;;;;;5089971;27;45624;-64
2022/01/29 14:15:32;;;;;;;;;1.00;1.00;;;;;;;;5083293;27;45554;-65
2022/01/29 14:17:57;;;;;;;;;3.25;2.25;;;;;;;;5089337;27;45359;-64
2022/01/29 14:20:23;;;;;;;;;2.00;2.00;;;;;;;;5080679;27;45511;-64
2022/01/29 14:22:49;;;;;;;;;1.00;0.00;;;;;;;;5092413;27;47625;-64
2022/01/29 14:25:18;;;;;;;;;1.00;1.00;;;;;;;;5089577;27;45491;-63
2022/01/29 14:27:45;;;;;;;;;1.00;1.00;;;;;;;;5080356;27;46032;-65
2022/01/29 14:30:10;;;;;;;;;1.25;1.00;;;;;;;;5078442;27;45476;-65
2022/01/29 14:32:36;;;;;;;;;1.00;1.00;;;;;;;;5068567;27;47431;-61
2022/01/29 14:35:03;;;;;;;;;2.50;1.50;;;;;;;;5074699;27;45543;-60
2022/01/29 14:37:28;;;;;;;;;3.00;2.00;;;;;;;;5088029;27;45428;-67
2022/01/29 14:39:54;;;;;;;;;1.00;1.00;;;;;;;;5085535;27;45396;-65
2022/01/29 14:42:26;;;;;;;;;1.50;1.50;;;;;;;;5093545;27;45661;-67
2022/01/29 14:44:52;;;;;;;;;0.00;0.00;;;;;;;;5096438;27;45838;-68
2022/01/29 14:47:17;;;;;;;;;1.00;1.00;;;;;;;;5075050;27;45552;-63